sensor_id;sensor_type;location;lat;lon;timestamp;temperature;humidity
5901;DHT22;2976;49.764;9.796;2023-02-02T00:01:21;4.80;99.90
5901;DHT22;2976;49.764;9.796;2023-02-02T00:03:47;4.90;99.90
5901;DHT22;2976;49.764;9.796;2023-02-02T00:06:19;4.90;99.90
5901;DHT22;2976;49.764;9.796;2023-02-02T00:08:45;4.90;99.90
5901;DHT22;2976;49.764;9.796;2023-02-02T00:11:11;4.90;99.90
5901;DHT22;2976;49.764;9.796;2023-02-02T00:13:37;4.90;99.90
5901;DHT22;2976;49.764;9.796;2023-02-02T00:18:57;5.00;99.90
5901;DHT22;2976;49.764;9.796;2023-02-02T00:21:24;5.00;99.90
5901;DHT22;2976;49.764;9.796;2023-02-02T00:23:49;5.10;99.90
5901;DHT22;2976;49.764;9.796;2023-02-02T00:26:16;5.10;99.90
5901;DHT22;2976;49.764;9.796;2023-02-02T00:28:41;5.10;99.90
5901;DHT22;2976;49.764;9.796;2023-02-02T00:31:07;5.00;99.90
5901;DHT22;2976;49.764;9.796;2023-02-02T00:33:33;5.00;99.90
5901;DHT22;2976;49.764;9.796;2023-02-02T00:35:58;5.00;99.90
5901;DHT22;2976;49.764;9.796;2023-02-02T00:38:24;5.00;99.90
5901;DHT22;2976;49.764;9.796;2023-02-02T00:40:49;5.00;99.90
5901;DHT22;2976;49.764;9.796;2023-02-02T00:43:15;5.00;99.90
5901;DHT22;2976;49.764;9.796;2023-02-02T00:45:40;4.90;99.90
5901;DHT22;2976;49.764;9.796;2023-02-02T00:48:06;4.90;99.90
5901;DHT22;2976;49.764;9.796;2023-02-02T00:50:32;5.00;99.90
5901;DHT22;2976;49.764;9.796;2023-02-02T00:52:57;5.00;99.90
5901;DHT22;2976;49.764;9.796;2023-02-02T00:55:24;5.00;99.90
5901;DHT22;2976;49.764;9.796;2023-02-02T00:57:51;4.90;99.90
5901;DHT22;2976;49.764;9.796;2023-02-02T01:00:22;4.90;99.90
5901;DHT22;2976;49.764;9.796;2023-02-02T01:02:49;4.90;99.90
5901;DHT22;2976;49.764;9.796;2023-02-02T01:05:15;4.80;99.90
5901;DHT22;2976;49.764;9.796;2023-02-02T01:07:40;4.80;99.90
5901;DHT22;2976;49.764;9.796;2023-02-02T01:10:08;4.80;99.90
5901;DHT22;2976;49.764;9.796;2023-02-02T01:12:35;4.80;99.90
5901;DHT22;2976;49.764;9.796;2023-02-02T01:15:01;4.90;99.90
5901;DHT22;2976;49.764;9.796;2023-02-02T01:17:26;4.90;99.90
5901;DHT22;2976;49.764;9.796;2023-02-02T01:19:52;4.80;99.90
5901;DHT22;2976;49.764;9.796;2023-02-02T01:22:18;4.80;99.90
5901;DHT22;2976;49.764;9.796;2023-02-02T01:24:44;4.90;99.90
5901;DHT22;2976;49.764;9.796;2023-02-02T01:27:09;4.90;99.90
5901;DHT22;2976;49.764;9.796;2023-02-02T01:29:35;4.90;99.90
5901;DHT22;2976;49.764;9.796;2023-02-02T01:32:01;4.80;99.90
5901;DHT22;2976;49.764;9.796;2023-02-02T01:34:26;4.80;99.90
5901;DHT22;2976;49.764;9.796;2023-02-02T01:36:52;4.80;99.90
5901;DHT22;2976;49.764;9.796;2023-02-02T01:39:18;4.80;99.90
5901;DHT22;2976;49.764;9.796;2023-02-02T01:41:43;4.80;99.90
5901;DHT22;2976;49.764;9.796;2023-02-02T01:47:13;4.80;99.90
5901;DHT22;2976;49.764;9.796;2023-02-02T01:49:39;4.80;99.90
5901;DHT22;2976;49.764;9.796;2023-02-02T01:52:05;4.90;99.90
5901;DHT22;2976;49.764;9.796;2023-02-02T01:54:36;4.90;99.90
5901;DHT22;2976;49.764;9.796;2023-02-02T01:57:13;4.90;99.90
5901;DHT22;2976;49.764;9.796;2023-02-02T01:59:40;4.90;99.90
5901;DHT22;2976;49.764;9.796;2023-02-02T02:02:08;5.00;99.90
5901;DHT22;2976;49.764;9.796;2023-02-02T02:04:34;5.00;99.90
5901;DHT22;2976;49.764;9.796;2023-02-02T02:07:01;5.00;99.90
5901;DHT22;2976;49.764;9.796;2023-02-02T02:09:29;5.10;99.90
5901;DHT22;2976;49.764;9.796;2023-02-02T02:11:54;5.20;99.90
5901;DHT22;2976;49.764;9.796;2023-02-02T02:14:20;5.20;99.90
5901;DHT22;2976;49.764;9.796;2023-02-02T02:17:24;5.20;99.90
5901;DHT22;2976;49.764;9.796;2023-02-02T02:29:46;5.20;99.90
5901;DHT22;2976;49.764;9.796;2023-02-02T02:35:05;4.90;99.90
5901;DHT22;2976;49.764;9.796;2023-02-02T02:38:05;4.90;99.90
5901;DHT22;2976;49.764;9.796;2023-02-02T02:40:46;4.90;99.90
5901;DHT22;2976;49.764;9.796;2023-02-02T02:45:45;4.80;99.90
5901;DHT22;2976;49.764;9.796;2023-02-02T02:48:12;4.70;99.90
5901;DHT22;2976;49.764;9.796;2023-02-02T02:50:37;4.70;99.90
5901;DHT22;2976;49.764;9.796;2023-02-02T02:53:15;4.70;99.90
5901;DHT22;2976;49.764;9.796;2023-02-02T02:58:35;4.70;99.90
5901;DHT22;2976;49.764;9.796;2023-02-02T03:01:11;4.70;99.90
5901;DHT22;2976;49.764;9.796;2023-02-02T03:03:55;4.70;99.90
5901;DHT22;2976;49.764;9.796;2023-02-02T03:06:33;4.70;99.90
5901;DHT22;2976;49.764;9.796;2023-02-02T03:09:04;4.70;99.90
5901;DHT22;2976;49.764;9.796;2023-02-02T03:11:33;4.70;99.90
5901;DHT22;2976;49.764;9.796;2023-02-02T03:14:00;4.70;99.90
5901;DHT22;2976;49.764;9.796;2023-02-02T03:16:26;4.60;99.90
5901;DHT22;2976;49.764;9.796;2023-02-02T03:18:52;4.70;99.90
5901;DHT22;2976;49.764;9.796;2023-02-02T03:21:18;4.70;99.90
5901;DHT22;2976;49.764;9.796;2023-02-02T03:23:43;4.60;99.90
5901;DHT22;2976;49.764;9.796;2023-02-02T03:26:09;4.60;99.90
5901;DHT22;2976;49.764;9.796;2023-02-02T03:28:35;4.70;99.90
5901;DHT22;2976;49.764;9.796;2023-02-02T03:31:00;4.70;99.90
5901;DHT22;2976;49.764;9.796;2023-02-02T03:33:26;4.80;99.90
5901;DHT22;2976;49.764;9.796;2023-02-02T03:35:52;4.80;99.90
5901;DHT22;2976;49.764;9.796;2023-02-02T03:38:18;4.80;99.90
5901;DHT22;2976;49.764;9.796;2023-02-02T03:40:43;4.80;99.90
5901;DHT22;2976;49.764;9.796;2023-02-02T03:43:09;4.80;99.90
5901;DHT22;2976;49.764;9.796;2023-02-02T03:45:35;4.80;99.90
5901;DHT22;2976;49.764;9.796;2023-02-02T03:48:04;4.80;99.90
5901;DHT22;2976;49.764;9.796;2023-02-02T03:50:31;4.80;99.90
5901;DHT22;2976;49.764;9.796;2023-02-02T03:52:56;4.90;99.90
5901;DHT22;2976;49.764;9.796;2023-02-02T03:55:22;4.80;99.90
5901;DHT22;2976;49.764;9.796;2023-02-02T03:57:47;4.80;99.90
5901;DHT22;2976;49.764;9.796;2023-02-02T04:00:13;4.80;99.90
5901;DHT22;2976;49.764;9.796;2023-02-02T04:02:39;4.80;99.90
5901;DHT22;2976;49.764;9.796;2023-02-02T04:05:05;4.80;99.90
5901;DHT22;2976;49.764;9.796;2023-02-02T04:07:30;4.70;99.90
5901;DHT22;2976;49.764;9.796;2023-02-02T04:09:56;4.80;99.90
5901;DHT22;2976;49.764;9.796;2023-02-02T04:12:21;4.80;99.90
5901;DHT22;2976;49.764;9.796;2023-02-02T04:14:47;4.70;99.90
5901;DHT22;2976;49.764;9.796;2023-02-02T04:17:12;4.70;99.90
5901;DHT22;2976;49.764;9.796;2023-02-02T04:19:38;4.70;99.90
5901;DHT22;2976;49.764;9.796;2023-02-02T04:22:03;4.70;99.90
5901;DHT22;2976;49.764;9.796;2023-02-02T04:24:29;4.70;99.90
5901;DHT22;2976;49.764;9.796;2023-02-02T04:26:54;4.70;99.90
5901;DHT22;2976;49.764;9.796;2023-02-02T04:29:20;4.80;99.90
5901;DHT22;2976;49.764;9.796;2023-02-02T04:31:45;4.80;99.90
5901;DHT22;2976;49.764;9.796;2023-02-02T04:34:11;4.80;99.90
5901;DHT22;2976;49.764;9.796;2023-02-02T04:36:36;4.80;99.90
5901;DHT22;2976;49.764;9.796;2023-02-02T04:39:02;4.80;99.90
5901;DHT22;2976;49.764;9.796;2023-02-02T04:41:27;4.90;99.90
5901;DHT22;2976;49.764;9.796;2023-02-02T04:43:53;4.90;99.90
5901;DHT22;2976;49.764;9.796;2023-02-02T04:46:18;4.90;99.90
5901;DHT22;2976;49.764;9.796;2023-02-02T04:48:47;4.90;99.90
5901;DHT22;2976;49.764;9.796;2023-02-02T04:51:13;4.90;99.90
5901;DHT22;2976;49.764;9.796;2023-02-02T04:53:40;4.90;99.90
5901;DHT22;2976;49.764;9.796;2023-02-02T04:56:07;4.90;99.90
5901;DHT22;2976;49.764;9.796;2023-02-02T04:58:33;5.00;99.90
5901;DHT22;2976;49.764;9.796;2023-02-02T05:00:58;5.00;99.90
5901;DHT22;2976;49.764;9.796;2023-02-02T05:03:24;5.00;99.90
5901;DHT22;2976;49.764;9.796;2023-02-02T05:05:49;4.90;99.90
5901;DHT22;2976;49.764;9.796;2023-02-02T05:08:15;5.00;99.90
5901;DHT22;2976;49.764;9.796;2023-02-02T05:10:41;4.90;99.90
5901;DHT22;2976;49.764;9.796;2023-02-02T05:13:07;4.90;99.90
5901;DHT22;2976;49.764;9.796;2023-02-02T05:15:33;4.90;99.90
5901;DHT22;2976;49.764;9.796;2023-02-02T05:17:59;4.90;99.90
5901;DHT22;2976;49.764;9.796;2023-02-02T05:20:24;5.00;99.90
5901;DHT22;2976;49.764;9.796;2023-02-02T05:22:50;5.00;99.90
5901;DHT22;2976;49.764;9.796;2023-02-02T05:25:16;5.00;99.90
5901;DHT22;2976;49.764;9.796;2023-02-02T05:27:45;5.00;99.90
5901;DHT22;2976;49.764;9.796;2023-02-02T05:30:12;5.00;99.90
5901;DHT22;2976;49.764;9.796;2023-02-02T05:32:38;5.00;99.90
5901;DHT22;2976;49.764;9.796;2023-02-02T05:35:04;5.10;99.90
5901;DHT22;2976;49.764;9.796;2023-02-02T05:37:30;5.10;99.90
5901;DHT22;2976;49.764;9.796;2023-02-02T05:39:55;5.10;99.90
5901;DHT22;2976;49.764;9.796;2023-02-02T05:42:21;5.20;99.90
5901;DHT22;2976;49.764;9.796;2023-02-02T05:44:46;5.20;99.90
5901;DHT22;2976;49.764;9.796;2023-02-02T05:47:12;5.20;99.90
5901;DHT22;2976;49.764;9.796;2023-02-02T05:49:38;5.20;99.90
5901;DHT22;2976;49.764;9.796;2023-02-02T05:52:04;5.20;99.90
5901;DHT22;2976;49.764;9.796;2023-02-02T05:54:29;5.20;99.90
5901;DHT22;2976;49.764;9.796;2023-02-02T05:56:55;5.20;99.90
5901;DHT22;2976;49.764;9.796;2023-02-02T05:59:21;5.20;99.90
5901;DHT22;2976;49.764;9.796;2023-02-02T06:01:47;5.20;99.90
5901;DHT22;2976;49.764;9.796;2023-02-02T06:04:13;5.20;99.90
5901;DHT22;2976;49.764;9.796;2023-02-02T06:06:39;5.10;99.90
5901;DHT22;2976;49.764;9.796;2023-02-02T06:09:06;5.10;99.90
5901;DHT22;2976;49.764;9.796;2023-02-02T06:11:32;5.10;99.90
5901;DHT22;2976;49.764;9.796;2023-02-02T06:13:58;5.10;99.90
5901;DHT22;2976;49.764;9.796;2023-02-02T06:16:24;5.10;99.90
5901;DHT22;2976;49.764;9.796;2023-02-02T06:18:50;5.10;99.90
5901;DHT22;2976;49.764;9.796;2023-02-02T06:21:15;5.10;99.90
5901;DHT22;2976;49.764;9.796;2023-02-02T06:23:41;5.20;99.90
5901;DHT22;2976;49.764;9.796;2023-02-02T06:26:19;5.10;99.90
5901;DHT22;2976;49.764;9.796;2023-02-02T06:28:48;5.10;99.90
5901;DHT22;2976;49.764;9.796;2023-02-02T06:31:14;5.10;99.90
5901;DHT22;2976;49.764;9.796;2023-02-02T06:34:01;5.10;99.90
5901;DHT22;2976;49.764;9.796;2023-02-02T06:36:27;5.20;99.90
5901;DHT22;2976;49.764;9.796;2023-02-02T06:38:54;5.10;99.90
5901;DHT22;2976;49.764;9.796;2023-02-02T06:41:20;5.10;99.90
5901;DHT22;2976;49.764;9.796;2023-02-02T06:43:47;5.10;99.90
5901;DHT22;2976;49.764;9.796;2023-02-02T06:46:13;5.10;99.90
5901;DHT22;2976;49.764;9.796;2023-02-02T06:48:38;5.10;99.90
5901;DHT22;2976;49.764;9.796;2023-02-02T06:51:04;5.00;99.90
5901;DHT22;2976;49.764;9.796;2023-02-02T06:53:30;5.00;99.90
5901;DHT22;2976;49.764;9.796;2023-02-02T06:55:58;5.00;99.90
5901;DHT22;2976;49.764;9.796;2023-02-02T06:58:25;5.10;99.90
5901;DHT22;2976;49.764;9.796;2023-02-02T07:00:50;5.00;99.90
5901;DHT22;2976;49.764;9.796;2023-02-02T07:03:17;5.00;99.90
5901;DHT22;2976;49.764;9.796;2023-02-02T07:05:43;5.00;99.90
5901;DHT22;2976;49.764;9.796;2023-02-02T07:08:08;5.00;99.90
5901;DHT22;2976;49.764;9.796;2023-02-02T07:10:36;5.00;99.90
5901;DHT22;2976;49.764;9.796;2023-02-02T07:13:02;5.10;99.90
5901;DHT22;2976;49.764;9.796;2023-02-02T07:15:28;5.10;99.90
5901;DHT22;2976;49.764;9.796;2023-02-02T07:17:53;5.10;99.90
5901;DHT22;2976;49.764;9.796;2023-02-02T07:20:19;5.00;99.90
5901;DHT22;2976;49.764;9.796;2023-02-02T07:22:44;5.00;99.90
5901;DHT22;2976;49.764;9.796;2023-02-02T07:25:10;5.00;99.90
5901;DHT22;2976;49.764;9.796;2023-02-02T07:27:36;5.10;99.90
5901;DHT22;2976;49.764;9.796;2023-02-02T07:30:01;5.00;99.90
5901;DHT22;2976;49.764;9.796;2023-02-02T07:32:28;5.00;99.90
5901;DHT22;2976;49.764;9.796;2023-02-02T07:34:54;5.00;99.90
5901;DHT22;2976;49.764;9.796;2023-02-02T07:37:19;5.10;99.90
5901;DHT22;2976;49.764;9.796;2023-02-02T07:39:45;5.10;99.90
5901;DHT22;2976;49.764;9.796;2023-02-02T07:42:11;5.10;99.90
5901;DHT22;2976;49.764;9.796;2023-02-02T07:44:37;5.10;99.90
5901;DHT22;2976;49.764;9.796;2023-02-02T07:47:03;5.10;99.90
5901;DHT22;2976;49.764;9.796;2023-02-02T07:49:29;5.10;99.90
5901;DHT22;2976;49.764;9.796;2023-02-02T07:51:54;5.10;99.90
5901;DHT22;2976;49.764;9.796;2023-02-02T07:54:20;5.20;99.90
5901;DHT22;2976;49.764;9.796;2023-02-02T07:56:45;5.20;99.90
5901;DHT22;2976;49.764;9.796;2023-02-02T07:59:11;5.20;99.90
5901;DHT22;2976;49.764;9.796;2023-02-02T08:01:37;5.30;99.90
5901;DHT22;2976;49.764;9.796;2023-02-02T08:04:03;5.30;99.90
5901;DHT22;2976;49.764;9.796;2023-02-02T08:06:33;5.30;99.90
5901;DHT22;2976;49.764;9.796;2023-02-02T08:09:00;5.40;99.90
5901;DHT22;2976;49.764;9.796;2023-02-02T08:11:28;5.40;99.90
5901;DHT22;2976;49.764;9.796;2023-02-02T08:13:56;5.50;99.90
5901;DHT22;2976;49.764;9.796;2023-02-02T08:16:23;5.50;99.90
5901;DHT22;2976;49.764;9.796;2023-02-02T08:18:49;5.50;99.90
5901;DHT22;2976;49.764;9.796;2023-02-02T08:21:16;5.60;99.90
5901;DHT22;2976;49.764;9.796;2023-02-02T08:23:42;5.50;99.90
5901;DHT22;2976;49.764;9.796;2023-02-02T08:26:18;5.50;99.90
5901;DHT22;2976;49.764;9.796;2023-02-02T08:28:46;5.50;99.90
5901;DHT22;2976;49.764;9.796;2023-02-02T08:31:17;5.50;99.90
5901;DHT22;2976;49.764;9.796;2023-02-02T08:33:43;5.60;99.90
5901;DHT22;2976;49.764;9.796;2023-02-02T08:36:18;5.60;99.90
5901;DHT22;2976;49.764;9.796;2023-02-02T08:38:44;5.60;99.90
5901;DHT22;2976;49.764;9.796;2023-02-02T08:41:13;5.60;99.90
5901;DHT22;2976;49.764;9.796;2023-02-02T08:43:39;5.60;99.90
5901;DHT22;2976;49.764;9.796;2023-02-02T08:46:07;5.60;99.90
5901;DHT22;2976;49.764;9.796;2023-02-02T08:48:33;5.60;99.90
5901;DHT22;2976;49.764;9.796;2023-02-02T08:51:00;5.60;99.90
5901;DHT22;2976;49.764;9.796;2023-02-02T08:53:26;5.60;99.90
5901;DHT22;2976;49.764;9.796;2023-02-02T08:55:58;5.50;99.90
5901;DHT22;2976;49.764;9.796;2023-02-02T08:58:24;5.60;99.90
5901;DHT22;2976;49.764;9.796;2023-02-02T09:00:50;5.60;99.90
5901;DHT22;2976;49.764;9.796;2023-02-02T09:03:15;5.60;99.90
5901;DHT22;2976;49.764;9.796;2023-02-02T09:05:41;5.60;99.90
5901;DHT22;2976;49.764;9.796;2023-02-02T09:08:06;5.70;99.90
5901;DHT22;2976;49.764;9.796;2023-02-02T09:10:34;5.80;99.90
5901;DHT22;2976;49.764;9.796;2023-02-02T09:13:00;5.80;99.90
5901;DHT22;2976;49.764;9.796;2023-02-02T09:15:25;5.80;99.90
5901;DHT22;2976;49.764;9.796;2023-02-02T09:17:51;5.90;99.90
5901;DHT22;2976;49.764;9.796;2023-02-02T09:20:17;5.80;99.90
5901;DHT22;2976;49.764;9.796;2023-02-02T09:22:43;5.90;99.90
5901;DHT22;2976;49.764;9.796;2023-02-02T09:25:08;5.90;99.90
5901;DHT22;2976;49.764;9.796;2023-02-02T09:27:37;6.00;99.90
5901;DHT22;2976;49.764;9.796;2023-02-02T09:30:06;6.00;99.90
5901;DHT22;2976;49.764;9.796;2023-02-02T09:32:32;6.00;99.90
5901;DHT22;2976;49.764;9.796;2023-02-02T09:34:57;6.10;99.90
5901;DHT22;2976;49.764;9.796;2023-02-02T09:37:25;6.10;99.90
5901;DHT22;2976;49.764;9.796;2023-02-02T09:39:50;6.10;99.90
5901;DHT22;2976;49.764;9.796;2023-02-02T09:45:22;6.20;99.90
5901;DHT22;2976;49.764;9.796;2023-02-02T09:51:02;6.20;99.90
5901;DHT22;2976;49.764;9.796;2023-02-02T09:53:43;6.20;99.90
5901;DHT22;2976;49.764;9.796;2023-02-02T09:56:27;6.20;99.90
5901;DHT22;2976;49.764;9.796;2023-02-02T09:58:59;6.20;99.90
5901;DHT22;2976;49.764;9.796;2023-02-02T10:01:36;6.20;99.90
5901;DHT22;2976;49.764;9.796;2023-02-02T10:04:46;6.10;99.90
5901;DHT22;2976;49.764;9.796;2023-02-02T10:07:12;6.10;99.90
5901;DHT22;2976;49.764;9.796;2023-02-02T10:09:54;6.20;99.90
5901;DHT22;2976;49.764;9.796;2023-02-02T10:12:35;6.20;99.90
5901;DHT22;2976;49.764;9.796;2023-02-02T10:23:25;6.20;99.90
5901;DHT22;2976;49.764;9.796;2023-02-02T10:26:04;6.20;99.90
5901;DHT22;2976;49.764;9.796;2023-02-02T10:31:17;6.20;99.90
5901;DHT22;2976;49.764;9.796;2023-02-02T10:36:49;6.30;99.90
5901;DHT22;2976;49.764;9.796;2023-02-02T10:39:31;6.40;99.90
5901;DHT22;2976;49.764;9.796;2023-02-02T10:44:49;6.50;99.90
5901;DHT22;2976;49.764;9.796;2023-02-02T10:47:24;6.50;99.90
5901;DHT22;2976;49.764;9.796;2023-02-02T10:50:17;6.50;99.90
5901;DHT22;2976;49.764;9.796;2023-02-02T10:52:46;6.40;99.90
5901;DHT22;2976;49.764;9.796;2023-02-02T10:58:05;6.50;99.90
5901;DHT22;2976;49.764;9.796;2023-02-02T11:00:40;6.50;99.90
5901;DHT22;2976;49.764;9.796;2023-02-02T11:03:09;6.60;99.90
5901;DHT22;2976;49.764;9.796;2023-02-02T11:05:36;6.60;99.90
5901;DHT22;2976;49.764;9.796;2023-02-02T11:08:43;6.50;99.90
5901;DHT22;2976;49.764;9.796;2023-02-02T11:11:12;6.50;99.90
5901;DHT22;2976;49.764;9.796;2023-02-02T11:16:42;6.50;99.90
5901;DHT22;2976;49.764;9.796;2023-02-02T11:19:22;6.50;99.90
5901;DHT22;2976;49.764;9.796;2023-02-02T11:21:53;6.50;99.90
5901;DHT22;2976;49.764;9.796;2023-02-02T11:24:45;6.50;99.90
5901;DHT22;2976;49.764;9.796;2023-02-02T11:27:18;6.60;99.90
5901;DHT22;2976;49.764;9.796;2023-02-02T11:29:48;6.50;99.90
5901;DHT22;2976;49.764;9.796;2023-02-02T11:32:30;6.50;99.90
5901;DHT22;2976;49.764;9.796;2023-02-02T11:37:35;6.50;99.90
5901;DHT22;2976;49.764;9.796;2023-02-02T11:40:36;6.50;99.90
5901;DHT22;2976;49.764;9.796;2023-02-02T11:43:14;6.50;99.90
5901;DHT22;2976;49.764;9.796;2023-02-02T11:45:42;6.60;99.90
5901;DHT22;2976;49.764;9.796;2023-02-02T11:48:16;6.60;99.90
5901;DHT22;2976;49.764;9.796;2023-02-02T11:50:54;6.60;99.90
5901;DHT22;2976;49.764;9.796;2023-02-02T11:53:24;6.60;99.90
5901;DHT22;2976;49.764;9.796;2023-02-02T11:55:51;6.70;99.90
5901;DHT22;2976;49.764;9.796;2023-02-02T11:58:23;6.70;99.90
5901;DHT22;2976;49.764;9.796;2023-02-02T12:01:02;6.70;99.90
5901;DHT22;2976;49.764;9.796;2023-02-02T12:03:34;6.60;99.90
5901;DHT22;2976;49.764;9.796;2023-02-02T12:06:00;6.60;99.90
5901;DHT22;2976;49.764;9.796;2023-02-02T12:08:41;6.60;99.90
5901;DHT22;2976;49.764;9.796;2023-02-02T12:11:08;6.50;99.90
5901;DHT22;2976;49.764;9.796;2023-02-02T12:13:45;6.50;99.90
5901;DHT22;2976;49.764;9.796;2023-02-02T12:16:38;6.50;99.90
5901;DHT22;2976;49.764;9.796;2023-02-02T12:19:27;6.60;99.90
5901;DHT22;2976;49.764;9.796;2023-02-02T12:24:36;6.70;99.90
5901;DHT22;2976;49.764;9.796;2023-02-02T12:27:11;6.70;99.90
5901;DHT22;2976;49.764;9.796;2023-02-02T12:29:47;6.70;99.90
5901;DHT22;2976;49.764;9.796;2023-02-02T12:32:56;6.80;99.90
5901;DHT22;2976;49.764;9.796;2023-02-02T12:35:47;6.80;99.90
5901;DHT22;2976;49.764;9.796;2023-02-02T12:49:51;6.80;99.90
5901;DHT22;2976;49.764;9.796;2023-02-02T12:57:49;6.80;99.90
5901;DHT22;2976;49.764;9.796;2023-02-02T13:00:35;6.80;99.90
5901;DHT22;2976;49.764;9.796;2023-02-02T13:06:47;6.70;99.90
5901;DHT22;2976;49.764;9.796;2023-02-02T13:09:30;6.70;99.90
5901;DHT22;2976;49.764;9.796;2023-02-02T13:12:04;6.60;99.90
5901;DHT22;2976;49.764;9.796;2023-02-02T13:14:39;6.60;99.90
5901;DHT22;2976;49.764;9.796;2023-02-02T13:17:11;6.50;99.90
5901;DHT22;2976;49.764;9.796;2023-02-02T13:19:46;6.50;99.90
5901;DHT22;2976;49.764;9.796;2023-02-02T13:22:17;6.40;99.90
5901;DHT22;2976;49.764;9.796;2023-02-02T13:24:47;6.40;99.90
5901;DHT22;2976;49.764;9.796;2023-02-02T13:27:17;6.40;99.90
5901;DHT22;2976;49.764;9.796;2023-02-02T13:29:49;6.40;99.90
5901;DHT22;2976;49.764;9.796;2023-02-02T13:32:37;6.40;99.90
5901;DHT22;2976;49.764;9.796;2023-02-02T13:35:19;6.40;99.90
5901;DHT22;2976;49.764;9.796;2023-02-02T13:38:03;6.50;99.90
5901;DHT22;2976;49.764;9.796;2023-02-02T13:40:39;6.50;99.90
5901;DHT22;2976;49.764;9.796;2023-02-02T13:43:45;6.50;99.90
5901;DHT22;2976;49.764;9.796;2023-02-02T13:49:25;6.60;99.90
5901;DHT22;2976;49.764;9.796;2023-02-02T13:52:34;6.60;99.90
5901;DHT22;2976;49.764;9.796;2023-02-02T14:01:05;6.60;99.90
5901;DHT22;2976;49.764;9.796;2023-02-02T14:03:38;6.60;99.90
5901;DHT22;2976;49.764;9.796;2023-02-02T14:06:18;6.60;99.90
5901;DHT22;2976;49.764;9.796;2023-02-02T14:08:56;6.60;99.90
5901;DHT22;2976;49.764;9.796;2023-02-02T14:11:36;6.60;99.90
5901;DHT22;2976;49.764;9.796;2023-02-02T14:14:17;6.60;99.90
5901;DHT22;2976;49.764;9.796;2023-02-02T14:19:56;6.50;99.90
5901;DHT22;2976;49.764;9.796;2023-02-02T14:28:11;6.40;99.90
5901;DHT22;2976;49.764;9.796;2023-02-02T14:30:38;6.40;99.90
5901;DHT22;2976;49.764;9.796;2023-02-02T14:33:37;6.30;99.90
5901;DHT22;2976;49.764;9.796;2023-02-02T14:36:09;6.30;99.90
5901;DHT22;2976;49.764;9.796;2023-02-02T14:38:48;6.40;99.90
5901;DHT22;2976;49.764;9.796;2023-02-02T14:41:32;6.30;99.90
5901;DHT22;2976;49.764;9.796;2023-02-02T14:44:18;6.30;99.90
5901;DHT22;2976;49.764;9.796;2023-02-02T14:46:44;6.30;99.90
5901;DHT22;2976;49.764;9.796;2023-02-02T14:49:19;6.20;99.90
5901;DHT22;2976;49.764;9.796;2023-02-02T14:51:52;6.10;99.90
5901;DHT22;2976;49.764;9.796;2023-02-02T14:54:25;6.10;99.90
5901;DHT22;2976;49.764;9.796;2023-02-02T14:56:55;6.10;99.90
5901;DHT22;2976;49.764;9.796;2023-02-02T14:59:46;6.10;99.90
5901;DHT22;2976;49.764;9.796;2023-02-02T15:04:36;6.10;99.90
5901;DHT22;2976;49.764;9.796;2023-02-02T15:09:47;6.10;99.90
5901;DHT22;2976;49.764;9.796;2023-02-02T15:15:19;6.10;99.90
5901;DHT22;2976;49.764;9.796;2023-02-02T15:17:52;6.10;99.90
5901;DHT22;2976;49.764;9.796;2023-02-02T15:23:04;6.10;99.90
5901;DHT22;2976;49.764;9.796;2023-02-02T15:25:46;6.20;99.90
5901;DHT22;2976;49.764;9.796;2023-02-02T15:28:27;6.20;99.90
5901;DHT22;2976;49.764;9.796;2023-02-02T15:31:17;6.20;99.90
5901;DHT22;2976;49.764;9.796;2023-02-02T15:33:47;6.20;99.90
5901;DHT22;2976;49.764;9.796;2023-02-02T15:36:21;6.20;99.90
5901;DHT22;2976;49.764;9.796;2023-02-02T15:38:54;6.20;99.90
5901;DHT22;2976;49.764;9.796;2023-02-02T15:41:24;6.10;99.90
5901;DHT22;2976;49.764;9.796;2023-02-02T15:43:51;6.10;99.90
5901;DHT22;2976;49.764;9.796;2023-02-02T15:46:20;6.10;99.90
5901;DHT22;2976;49.764;9.796;2023-02-02T15:51:45;6.10;99.90
5901;DHT22;2976;49.764;9.796;2023-02-02T15:54:56;6.10;99.90
5901;DHT22;2976;49.764;9.796;2023-02-02T15:57:33;6.10;99.90
5901;DHT22;2976;49.764;9.796;2023-02-02T16:00:00;6.00;99.90
5901;DHT22;2976;49.764;9.796;2023-02-02T16:04:51;6.00;99.90
5901;DHT22;2976;49.764;9.796;2023-02-02T16:07:20;6.00;99.90
5901;DHT22;2976;49.764;9.796;2023-02-02T16:09:46;6.00;99.90
5901;DHT22;2976;49.764;9.796;2023-02-02T16:12:18;6.00;99.90
5901;DHT22;2976;49.764;9.796;2023-02-02T16:14:49;6.00;99.90
5901;DHT22;2976;49.764;9.796;2023-02-02T16:17:28;6.00;99.90
5901;DHT22;2976;49.764;9.796;2023-02-02T16:20:04;6.00;99.90
5901;DHT22;2976;49.764;9.796;2023-02-02T16:22:35;5.90;99.90
5901;DHT22;2976;49.764;9.796;2023-02-02T16:25:06;5.90;99.90
5901;DHT22;2976;49.764;9.796;2023-02-02T16:27:33;6.00;99.90
5901;DHT22;2976;49.764;9.796;2023-02-02T16:30:05;5.90;99.90
5901;DHT22;2976;49.764;9.796;2023-02-02T16:32:35;5.90;99.90
5901;DHT22;2976;49.764;9.796;2023-02-02T16:35:32;5.90;99.90
5901;DHT22;2976;49.764;9.796;2023-02-02T16:38:13;5.90;99.90
5901;DHT22;2976;49.764;9.796;2023-02-02T16:40:40;5.90;99.90
5901;DHT22;2976;49.764;9.796;2023-02-02T16:43:19;5.90;99.90
5901;DHT22;2976;49.764;9.796;2023-02-02T16:45:48;5.90;99.90
5901;DHT22;2976;49.764;9.796;2023-02-02T16:53:55;5.80;99.90
5901;DHT22;2976;49.764;9.796;2023-02-02T16:56:34;5.80;99.90
5901;DHT22;2976;49.764;9.796;2023-02-02T16:59:06;5.80;99.90
5901;DHT22;2976;49.764;9.796;2023-02-02T17:01:45;5.70;99.90
5901;DHT22;2976;49.764;9.796;2023-02-02T17:04:22;5.70;99.90
5901;DHT22;2976;49.764;9.796;2023-02-02T17:06:49;5.70;99.90
5901;DHT22;2976;49.764;9.796;2023-02-02T17:09:29;5.70;99.90
5901;DHT22;2976;49.764;9.796;2023-02-02T17:14:55;5.80;99.90
5901;DHT22;2976;49.764;9.796;2023-02-02T17:17:25;5.80;99.90
5901;DHT22;2976;49.764;9.796;2023-02-02T17:19:51;5.80;99.90
5901;DHT22;2976;49.764;9.796;2023-02-02T17:22:19;5.80;99.90
5901;DHT22;2976;49.764;9.796;2023-02-02T17:24:46;5.80;99.90
5901;DHT22;2976;49.764;9.796;2023-02-02T17:27:16;5.90;99.90
5901;DHT22;2976;49.764;9.796;2023-02-02T17:29:44;5.90;99.90
5901;DHT22;2976;49.764;9.796;2023-02-02T17:32:12;5.90;99.90
5901;DHT22;2976;49.764;9.796;2023-02-02T17:34:38;5.90;99.90
5901;DHT22;2976;49.764;9.796;2023-02-02T17:37:04;5.90;99.90
5901;DHT22;2976;49.764;9.796;2023-02-02T17:39:29;5.90;99.90
5901;DHT22;2976;49.764;9.796;2023-02-02T17:41:55;6.00;99.90
5901;DHT22;2976;49.764;9.796;2023-02-02T17:44:21;6.00;99.90
5901;DHT22;2976;49.764;9.796;2023-02-02T17:46:46;6.00;99.90
5901;DHT22;2976;49.764;9.796;2023-02-02T17:49:12;6.00;99.90
5901;DHT22;2976;49.764;9.796;2023-02-02T17:51:37;6.00;99.90
5901;DHT22;2976;49.764;9.796;2023-02-02T17:54:12;6.00;99.90
5901;DHT22;2976;49.764;9.796;2023-02-02T17:56:37;6.00;99.90
5901;DHT22;2976;49.764;9.796;2023-02-02T17:59:03;6.10;99.90
5901;DHT22;2976;49.764;9.796;2023-02-02T18:01:29;6.10;99.90
5901;DHT22;2976;49.764;9.796;2023-02-02T18:03:55;6.10;99.90
5901;DHT22;2976;49.764;9.796;2023-02-02T18:06:20;6.10;99.90
5901;DHT22;2976;49.764;9.796;2023-02-02T18:08:46;6.10;99.90
5901;DHT22;2976;49.764;9.796;2023-02-02T18:11:13;6.10;99.90
5901;DHT22;2976;49.764;9.796;2023-02-02T18:13:40;6.10;99.90
5901;DHT22;2976;49.764;9.796;2023-02-02T18:16:10;6.10;99.90
5901;DHT22;2976;49.764;9.796;2023-02-02T18:18:37;6.10;99.90
5901;DHT22;2976;49.764;9.796;2023-02-02T18:21:07;6.10;99.90
5901;DHT22;2976;49.764;9.796;2023-02-02T18:23:33;6.10;99.90
5901;DHT22;2976;49.764;9.796;2023-02-02T18:26:13;6.20;99.90
5901;DHT22;2976;49.764;9.796;2023-02-02T18:28:39;6.20;99.90
5901;DHT22;2976;49.764;9.796;2023-02-02T18:31:09;6.30;99.90
5901;DHT22;2976;49.764;9.796;2023-02-02T18:33:35;6.30;99.90
5901;DHT22;2976;49.764;9.796;2023-02-02T18:36:06;6.30;99.90
5901;DHT22;2976;49.764;9.796;2023-02-02T18:38:32;6.30;99.90